Time;durP1;ratioP1;P1;durP2;ratioP2;P2;SDS_P1;SDS_P2;PMS_P1;PMS_P2;Temp;Humidity;BMP_temperature;BMP_pressure;BME280_temperature;BME280_humidity;BME280_pressure;Samples;Min_cycle;Max_cycle;Signal;HPM_P1;HPM_P2
2022/02/08 00:04:34;;;;;;;12.20;5.10;;;;;;;3.35;100.00;100256.00;15276896;19;20148;-48
2022/02/08 00:09:39;;;;;;;16.10;4.83;;;;;;;3.41;100.00;100271.59;15275507;19;20196;-50
2022/02/08 00:14:48;;;;;;;15.13;4.23;;;;;;;3.37;100.00;100255.03;15250503;19;20146;-51
2022/02/08 00:19:53;;;;;;;15.40;5.03;;;;;;;3.31;100.00;100275.47;15272257;19;20223;-51
2022/02/08 00:24:57;;;;;;;13.93;4.07;;;;;;;3.28;100.00;100283.47;15276093;19;20211;-51
2022/02/08 00:30:02;;;;;;;12.93;4.40;;;;;;;3.27;100.00;100290.53;15275099;19;20156;-51
2022/02/08 00:35:07;;;;;;;17.40;4.67;;;;;;;3.23;100.00;100297.72;15252663;19;20512;-50
2022/02/08 00:40:11;;;;;;;15.23;5.00;;;;;;;3.24;100.00;100307.34;15260877;19;20162;-49
2022/02/08 00:45:27;;;;;;;17.00;4.27;;;;;;;3.28;100.00;100315.13;15279368;19;20180;-51
2022/02/08 00:50:31;;;;;;;14.47;4.53;;;;;;;3.23;100.00;100310.91;15276867;19;20155;-51
2022/02/08 00:55:36;;;;;;;16.03;5.00;;;;;;;3.18;100.00;100310.19;15263095;19;20155;-57
2022/02/08 01:00:41;;;;;;;16.27;4.37;;;;;;;3.23;100.00;100321.44;15250212;19;20151;-48
2022/02/08 01:05:47;;;;;;;16.90;4.60;;;;;;;3.21;100.00;100317.13;15276250;19;20144;-50
2022/02/08 01:10:53;;;;;;;18.97;4.63;;;;;;;3.20;100.00;100326.81;15276071;19;20495;-49
2022/02/08 01:15:58;;;;;;;15.50;4.47;;;;;;;3.17;100.00;100334.81;15276484;19;20165;-50
2022/02/08 01:21:02;;;;;;;15.80;5.17;;;;;;;3.10;100.00;100335.94;15242641;19;20155;-48
2022/02/08 01:26:13;;;;;;;13.33;4.27;;;;;;;3.05;100.00;100348.41;15264161;19;20183;-48
2022/02/08 01:31:19;;;;;;;19.33;4.87;;;;;;;3.03;100.00;100355.50;15271242;19;20163;-50
2022/02/08 01:47:27;;;;;;;12.70;4.20;;;;;;;3.13;100.00;100378.03;15255870;19;20143;-48
2022/02/08 01:52:32;;;;;;;21.10;4.60;;;;;;;3.13;100.00;100385.94;15273143;19;20180;-49
2022/02/08 01:57:37;;;;;;;12.40;4.20;;;;;;;3.18;100.00;100386.63;15271842;19;20220;-52
2022/02/08 02:02:43;;;;;;;18.33;5.13;;;;;;;3.21;100.00;100394.47;15257855;19;20172;-49
2022/02/08 02:07:55;;;;;;;16.43;4.57;;;;;;;3.24;100.00;100391.72;15244804;19;20983;-49
2022/02/08 02:13:02;;;;;;;13.50;4.27;;;;;;;3.29;100.00;100406.50;15270218;19;20635;-50
2022/02/08 02:18:11;;;;;;;14.67;4.13;;;;;;;3.26;100.00;100420.66;15270857;19;20147;-49
2022/02/08 02:23:16;;;;;;;14.37;4.30;;;;;;;3.34;100.00;100426.56;15268300;19;20148;-50
2022/02/08 02:28:21;;;;;;;17.93;4.60;;;;;;;3.31;100.00;100445.13;15237574;19;20922;-51
2022/02/08 02:33:26;;;;;;;18.87;4.70;;;;;;;3.29;100.00;100435.53;15263516;19;20154;-47
2022/02/08 02:38:31;;;;;;;15.07;4.03;;;;;;;3.35;100.00;100446.75;15271193;19;20169;-49
2022/02/08 02:43:37;;;;;;;14.13;4.73;;;;;;;3.27;100.00;100464.56;15273472;19;20242;-49
2022/02/08 02:48:42;;;;;;;14.30;4.47;;;;;;;3.34;100.00;100465.25;15260096;19;20154;-48
2022/02/08 02:53:47;;;;;;;12.37;4.40;;;;;;;3.21;100.00;100470.94;15263123;19;20784;-51
2022/02/08 02:59:01;;;;;;;15.27;5.20;;;;;;;3.26;100.00;100490.09;15282422;19;20181;-48
2022/02/08 03:04:25;;;;;;;14.93;4.30;;;;;;;3.33;100.00;100501.31;15275938;19;20147;-49
2022/02/08 03:20:13;;;;;;;13.40;4.50;;;;;;;3.41;100.00;100524.81;15283129;19;20522;-50
2022/02/08 03:25:17;;;;;;;10.37;4.07;;;;;;;3.43;100.00;100538.81;15275900;19;21186;-49
2022/02/08 03:30:23;;;;;;;9.53;3.80;;;;;;;3.44;100.00;100546.69;15275095;19;20172;-49
2022/02/08 03:35:28;;;;;;;12.00;4.00;;;;;;;3.51;100.00;100547.34;15251897;19;20263;-50
2022/02/08 03:40:41;;;;;;;10.90;3.83;;;;;;;3.49;100.00;100565.03;15275687;19;20179;-50
2022/02/08 03:45:50;;;;;;;12.17;4.00;;;;;;;3.53;100.00;100577.19;15276845;19;20144;-49
2022/02/08 03:51:06;;;;;;;9.87;3.70;;;;;;;3.48;100.00;100573.84;15281082;19;20145;-50
2022/02/08 03:56:15;;;;;;;9.17;4.00;;;;;;;3.53;100.00;100593.00;15254573;19;20148;-52
2022/02/08 04:06:48;;;;;;;9.70;3.80;;;;;;;3.48;100.00;100606.38;15279633;19;20214;-48
2022/02/08 04:11:58;;;;;;;9.77;3.47;;;;;;;3.48;100.00;100626.59;15282353;19;20226;-49
2022/02/08 04:17:12;;;;;;;10.67;3.97;;;;;;;3.55;100.00;100643.97;15266870;19;20147;-49
2022/02/08 04:33:07;;;;;;;8.77;3.37;;;;;;;3.61;100.00;100643.78;15279650;19;20181;-50
2022/02/08 04:38:24;;;;;;;11.30;4.23;;;;;;;3.59;100.00;100650.88;15273647;19;20489;-48
2022/02/08 04:43:37;;;;;;;9.33;3.83;;;;;;;3.57;100.00;100647.44;15247494;19;20129;-50
2022/02/08 04:48:48;;;;;;;10.93;4.50;;;;;;;3.56;100.00;100661.53;15271436;19;20856;-51
2022/02/08 04:54:01;;;;;;;12.03;4.50;;;;;;;3.54;100.00;100668.63;15277125;19;20155;-51
2022/02/08 04:59:19;;;;;;;8.13;3.57;;;;;;;3.51;100.00;100674.84;15277072;19;20157;-50
2022/02/08 05:36:32;;;;;;;13.97;3.20;;;;;;;3.19;100.00;100704.78;15275242;19;20148;-48
2022/02/08 05:41:48;;;;;;;8.83;2.50;;;;;;;3.14;100.00;100722.50;15273944;19;20175;-48
2022/02/08 05:46:53;;;;;;;7.57;3.17;;;;;;;2.86;100.00;100719.75;15260318;19;20150;-52
2022/02/08 05:57:15;;;;;;;8.97;3.40;;;;;;;2.78;100.00;100719.06;15271647;19;20153;-51
2022/02/08 06:02:21;;;;;;;12.10;3.70;;;;;;;2.76;100.00;100725.31;15271375;19;20158;-48
2022/02/08 06:07:40;;;;;;;11.80;4.33;;;;;;;2.73;100.00;100730.66;15267418;19;20134;-49
2022/02/08 06:12:50;;;;;;;9.83;3.30;;;;;;;2.82;100.00;100738.31;15242409;19;20160;-51
2022/02/08 06:18:01;;;;;;;8.07;3.30;;;;;;;2.90;100.00;100739.84;15265961;19;20616;-52
2022/02/08 06:23:07;;;;;;;8.67;3.20;;;;;;;3.02;100.00;100758.91;15280925;19;20196;-53
2022/02/08 06:28:13;;;;;;;10.67;3.60;;;;;;;3.08;100.00;100746.41;15279408;19;20198;-52
2022/02/08 06:33:17;;;;;;;9.77;3.57;;;;;;;3.20;100.00;100750.50;15259104;19;20638;-50
2022/02/08 06:38:22;;;;;;;9.97;3.50;;;;;;;3.18;100.00;100757.56;15269639;19;20166;-52
2022/02/08 06:43:30;;;;;;;8.00;3.30;;;;;;;3.37;100.00;100757.94;15278275;19;20147;-50
2022/02/08 06:48:34;;;;;;;7.67;2.80;;;;;;;3.40;100.00;100756.06;15283381;19;20152;-53
2022/02/08 06:53:41;;;;;;;9.03;3.27;;;;;;;3.46;100.00;100769.09;15267397;19;20148;-51
2022/02/08 06:58:56;;;;;;;6.20;3.00;;;;;;;3.55;100.00;100760.91;15249502;19;20606;-48
2022/02/08 07:04:03;;;;;;;9.73;3.20;;;;;;;3.58;100.00;100749.44;15279645;19;20183;-51
2022/02/08 07:09:07;;;;;;;7.60;3.17;;;;;;;3.68;100.00;100748.25;15282840;19;20235;-49
2022/02/08 07:14:12;;;;;;;10.83;4.07;;;;;;;3.82;100.00;100750.47;15281844;19;20488;-49
2022/02/08 07:19:16;;;;;;;9.23;3.30;;;;;;;3.79;100.00;100748.78;15249737;19;20149;-51
2022/02/08 07:24:21;;;;;;;10.63;3.30;;;;;;;3.81;100.00;100757.53;15268084;19;20565;-51
2022/02/08 07:29:27;;;;;;;9.23;3.70;;;;;;;3.87;100.00;100762.63;15277326;19;20250;-51
2022/02/08 07:34:39;;;;;;;9.77;3.30;;;;;;;4.01;100.00;100766.63;15282796;19;20242;-52
2022/02/08 07:39:47;;;;;;;8.10;3.43;;;;;;;4.11;100.00;100765.44;15262716;19;20153;-50
2022/02/08 07:44:51;;;;;;;11.70;3.93;;;;;;;4.24;100.00;100766.78;15256235;19;20211;-49
2022/02/08 07:50:01;;;;;;;13.67;4.60;;;;;;;4.42;100.00;100766.22;15278861;19;20157;-49
2022/02/08 07:55:05;;;;;;;17.07;4.77;;;;;;;4.58;100.00;100759.53;15280280;19;20229;-52
2022/02/08 08:00:11;;;;;;;16.33;4.67;;;;;;;4.87;100.00;100777.06;15276740;19;20261;-48
2022/02/08 08:05:16;;;;;;;15.33;4.63;;;;;;;5.05;100.00;100767.66;15250010;19;20155;-51
2022/02/08 08:10:27;;;;;;;18.90;5.10;;;;;;;4.95;100.00;100764.44;15272608;19;20144;-50
2022/02/08 08:15:40;;;;;;;19.23;5.00;;;;;;;4.79;100.00;100765.00;15280018;19;20145;-50
2022/02/08 08:20:44;;;;;;;18.93;5.40;;;;;;;4.53;100.00;100764.09;15279640;19;20614;-48
2022/02/08 08:25:50;;;;;;;13.50;4.60;;;;;;;4.68;100.00;100765.38;15250825;19;20597;-50
2022/02/08 08:30:56;;;;;;;18.90;4.57;;;;;;;5.00;100.00;100764.28;15259646;19;20467;-48
2022/02/08 08:36:00;;;;;;;13.17;4.50;;;;;;;5.34;100.00;100774.53;15278848;19;20157;-49
2022/02/08 08:41:20;;;;;;;14.87;5.37;;;;;;;5.52;100.00;100773.91;15277920;19;20224;-51
2022/02/08 08:51:46;;;;;;;19.17;5.47;;;;;;;5.34;100.00;100759.53;15250915;19;20708;-49
2022/02/08 09:01:49;;;;;;;12.53;4.67;;;;;;;5.61;100.00;100762.09;15343658;19;21331;-49
2022/02/08 09:06:53;;;;;;;12.00;4.73;;;;;;;5.92;100.00;100754.75;15345571;19;20148;-50
2022/02/08 09:12:11;;;;;;;15.43;5.10;;;;;;;6.01;100.00;100738.53;15319289;19;20148;-51
2022/02/08 09:17:40;;;;;;;27.13;6.30;;;;;;;5.84;100.00;100743.56;15335364;19;20201;-51
2022/02/08 09:23:12;;;;;;;14.90;6.23;;;;;;;5.90;100.00;100755.75;15346849;19;20608;-49
2022/02/08 09:28:22;;;;;;;19.13;5.23;;;;;;;5.84;100.00;100743.56;15346947;19;20168;-51
2022/02/08 09:33:27;;;;;;;13.27;6.47;;;;;;;6.33;100.00;100762.91;15322523;19;20145;-52
2022/02/08 09:38:34;;;;;;;18.40;6.77;;;;;;;6.48;100.00;100772.91;15324946;19;20179;-48
2022/02/08 09:43:40;;;;;;;12.57;5.13;;;;;;;6.21;100.00;100758.94;15345055;19;20157;-52
2022/02/08 09:48:49;;;;;;;14.00;5.47;;;;;;;6.19;100.00;100746.66;15343852;19;20140;-50
2022/02/08 09:53:57;;;;;;;12.83;5.00;;;;;;;6.32;100.00;100745.25;15336575;19;20144;-51
2022/02/08 09:59:04;;;;;;;16.27;5.27;;;;;;;6.38;100.00;100721.19;15314224;19;20744;-50
2022/02/08 10:04:08;;;;;;;17.47;5.37;;;;;;;6.55;100.00;100710.72;15341254;19;20171;-48
2022/02/08 10:09:13;;;;;;;16.83;5.03;;;;;;;6.62;100.00;100721.97;15331977;19;20820;-50
2022/02/08 10:14:25;;;;;;;15.53;4.97;;;;;;;6.63;100.00;100692.72;15284116;19;20497;-50
2022/02/08 10:20:00;;;;;;;16.20;5.00;;;;;;;6.67;100.00;100690.78;15251514;19;20153;-49
2022/02/08 10:25:06;;;;;;;12.13;4.13;;;;;;;6.78;100.00;100676.16;15269750;19;20221;-50
2022/02/08 10:40:56;;;;;;;16.50;4.73;;;;;;;7.04;100.00;100650.28;15253582;19;20151;-51
2022/02/08 10:46:01;;;;;;;12.60;4.10;;;;;;;7.02;100.00;100650.34;15256063;19;20145;-52
2022/02/08 10:51:07;;;;;;;15.40;4.13;;;;;;;7.13;100.00;100634.78;15275243;19;20149;-49
2022/02/08 10:56:16;;;;;;;13.37;4.17;;;;;;;7.00;100.00;100627.47;15271262;19;20154;-49
2022/02/08 11:01:21;;;;;;;15.90;4.43;;;;;;;6.79;100.00;100621.31;15259381;19;20192;-49
2022/02/08 11:06:32;;;;;;;11.97;3.97;;;;;;;6.69;100.00;100638.56;15250396;19;20198;-51
2022/02/08 11:22:50;;;;;;;17.40;3.83;;;;;;;6.46;100.00;100626.28;15278979;19;20150;-50
2022/02/08 11:28:09;;;;;;;14.80;4.63;;;;;;;6.48;100.00;100630.59;15247816;19;20158;-47
2022/02/08 11:39:22;;;;;;;14.43;4.87;;;;;;;6.63;100.00;100585.78;15280069;19;20157;-50
2022/02/08 12:01:49;;;;;;;12.73;3.90;;;;;;;7.12;100.00;100564.09;15275662;19;20207;-49
2022/02/08 12:07:12;;;;;;;10.10;4.27;;;;;;;7.16;100.00;100572.75;15281199;19;20178;-49
2022/02/08 12:13:00;;;;;;;7.83;3.77;;;;;;;6.77;100.00;100565.66;15249762;19;20194;-51
2022/02/08 12:30:17;;;;;;;10.77;4.80;;;;;;;6.58;100.00;100546.22;15272542;19;20226;-48
2022/02/08 12:50:59;;;;;;;13.60;5.53;;;;;;;6.38;100.00;100509.13;15272215;19;20140;-48
2022/02/08 12:56:09;;;;;;;10.30;5.60;;;;;;;6.11;100.00;100487.34;15257936;19;20161;-49
2022/02/08 13:01:38;;;;;;;12.30;6.50;;;;;;;5.87;100.00;100488.34;15251549;19;20794;-50
2022/02/08 14:10:25;;;;;;;9.27;5.23;;;;;;;4.89;100.00;100397.09;15271557;19;20163;-50
2022/02/08 14:21:10;;;;;;;13.17;6.47;;;;;;;4.88;100.00;100391.88;15272739;19;20891;-51
2022/02/08 14:31:46;;;;;;;14.30;7.63;;;;;;;4.98;100.00;100374.72;15263909;19;20159;-50
2022/02/08 14:37:04;;;;;;;14.23;8.70;;;;;;;4.97;100.00;100367.69;15279002;19;20203;-51
2022/02/08 15:08:38;;;;;;;13.47;8.63;;;;;;;5.10;100.00;100336.31;15269498;19;20162;-53
2022/02/08 15:13:46;;;;;;;11.37;7.83;;;;;;;5.10;100.00;100329.25;15246872;19;20173;-50
2022/02/08 15:18:50;;;;;;;11.63;7.80;;;;;;;5.01;100.00;100311.13;15267018;19;20157;-49
2022/02/08 15:23:55;;;;;;;10.73;7.97;;;;;;;5.01;100.00;100311.13;15275568;19;20155;-51
2022/02/08 15:29:03;;;;;;;10.97;8.33;;;;;;;5.08;100.00;100312.59;15273822;19;20316;-53
2022/02/08 15:34:08;;;;;;;11.93;8.57;;;;;;;5.01;100.00;100319.06;15247258;19;20149;-51
2022/02/08 15:39:12;;;;;;;12.17;8.40;;;;;;;4.95;100.00;100309.59;15251840;19;20156;-52
2022/02/08 15:44:21;;;;;;;10.50;8.63;;;;;;;4.95;100.00;100311.41;15269541;19;20168;-52
2022/02/08 15:49:26;;;;;;;13.43;9.63;;;;;;;4.96;100.00;100302.50;15271403;19;20149;-52
2022/02/08 15:54:37;;;;;;;13.80;9.50;;;;;;;4.94;100.00;100299.09;15261462;19;20212;-52
2022/02/08 16:11:00;;;;;;;12.50;10.50;;;;;;;5.01;100.00;100297.91;15270649;19;20268;-50
2022/02/08 16:16:34;;;;;;;11.53;10.20;;;;;;;5.01;100.00;100282.91;15267180;19;20167;-54
2022/02/08 16:22:11;;;;;;;11.93;10.07;;;;;;;5.06;100.00;100282.72;15246057;19;20145;-52
2022/02/08 16:27:24;;;;;;;13.93;11.00;;;;;;;5.07;100.00;100287.09;15269963;19;20152;-50
2022/02/08 16:53:41;;;;;;;12.33;11.03;;;;;;;5.28;100.00;100259.72;15264022;19;20880;-49
2022/02/08 16:58:52;;;;;;;12.13;10.93;;;;;;;5.35;100.00;100250.56;15262786;19;20176;-51
2022/02/08 17:03:58;;;;;;;12.90;11.63;;;;;;;5.42;100.00;100244.09;15238867;19;20216;-51
2022/02/08 17:09:09;;;;;;;15.00;12.90;;;;;;;5.43;100.00;100247.59;15247793;19;20160;-49
2022/02/08 17:14:23;;;;;;;14.13;12.63;;;;;;;5.55;100.00;100264.72;15262226;19;20157;-49
2022/02/08 17:46:16;;;;;;;14.20;12.80;;;;;;;5.78;100.00;100269.84;15269548;19;20154;-48
2022/02/08 17:51:20;;;;;;;13.27;12.00;;;;;;;5.81;100.00;100259.09;15248352;19;20148;-51
2022/02/08 17:56:45;;;;;;;14.37;13.00;;;;;;;5.86;100.00;100256.25;15278009;19;20647;-51
2022/02/08 18:01:50;;;;;;;15.37;13.63;;;;;;;5.92;100.00;100254.19;15282757;19;20929;-51
2022/02/08 18:06:55;;;;;;;18.03;14.37;;;;;;;5.95;100.00;100258.50;15278174;19;20153;-51
2022/02/08 18:12:01;;;;;;;17.80;15.53;;;;;;;5.99;100.00;100271.53;15245155;19;20163;-50
2022/02/08 18:17:10;;;;;;;15.83;14.23;;;;;;;6.06;100.00;100278.25;15271901;19;20177;-51
2022/02/08 18:22:28;;;;;;;15.10;13.60;;;;;;;6.06;100.00;100272.94;15273110;19;20153;-51
2022/02/08 19:15:43;;;;;;;11.97;10.90;;;;;;;6.63;100.00;100305.59;15244341;19;20687;-50
2022/02/08 19:21:07;;;;;;;11.47;10.43;;;;;;;6.65;100.00;100311.66;15221137;19;20588;-49
2022/02/08 19:26:12;;;;;;;9.73;8.93;;;;;;;6.65;100.00;100316.09;15238619;19;20681;-50
2022/02/08 19:31:19;;;;;;;10.30;9.40;;;;;;;6.67;100.00;100312.44;15242022;19;20215;-51
2022/02/08 19:36:24;;;;;;;9.93;9.07;;;;;;;6.72;100.00;100334.31;15234930;19;20152;-49
2022/02/08 19:41:35;;;;;;;8.70;7.90;;;;;;;6.76;100.00;100346.47;15216450;19;20164;-52
2022/02/08 19:46:41;;;;;;;9.10;8.30;;;;;;;6.81;100.00;100346.25;15229112;19;21001;-50
2022/02/08 19:51:45;;;;;;;7.70;7.00;;;;;;;6.82;100.00;100358.59;15240348;19;20133;-50
2022/02/08 19:56:55;;;;;;;7.23;6.63;;;;;;;6.91;100.00;100362.59;15236722;19;20166;-48
2022/02/08 20:02:00;;;;;;;6.97;6.37;;;;;;;6.95;100.00;100361.50;15223429;19;20778;-49
2022/02/08 20:07:06;;;;;;;6.90;6.30;;;;;;;7.03;100.00;100362.00;15248745;19;20167;-48
2022/02/08 20:12:10;;;;;;;6.20;5.70;;;;;;;7.11;100.00;100381.06;15272508;19;20155;-50
2022/02/08 20:17:27;;;;;;;6.40;5.80;;;;;;;7.09;100.00;100388.25;15271908;19;20142;-50
2022/02/08 20:22:31;;;;;;;5.50;5.00;;;;;;;7.15;100.00;100393.22;15265969;19;20152;-49
2022/02/08 20:27:46;;;;;;;6.33;5.83;;;;;;;7.14;100.00;100410.94;15245284;19;20138;-48
2022/02/08 20:32:52;;;;;;;5.50;5.00;;;;;;;7.14;100.00;100418.91;15265689;19;20180;-51
2022/02/08 20:37:56;;;;;;;6.53;5.60;;;;;;;7.16;100.00;100434.75;15271273;19;20161;-49
2022/02/08 20:43:04;;;;;;;5.00;4.50;;;;;;;7.18;100.00;100431.09;15270349;19;20162;-50
2022/02/08 20:48:10;;;;;;;5.07;4.67;;;;;;;7.21;100.00;100428.31;15248887;19;20166;-51
2022/02/08 20:53:22;;;;;;;5.00;4.53;;;;;;;7.26;100.00;100444.00;15256245;19;21105;-51
2022/02/08 20:58:49;;;;;;;5.57;4.77;;;;;;;7.28;100.00;100455.41;15272867;19;20225;-49
2022/02/08 21:03:59;;;;;;;4.60;4.20;;;;;;;7.29;100.00;100451.81;15272886;19;20143;-48
2022/02/08 21:09:05;;;;;;;4.90;4.23;;;;;;;7.34;100.00;100462.22;15258329;19;20474;-52
2022/02/08 21:14:12;;;;;;;5.47;4.10;;;;;;;7.35;100.00;100470.09;15249702;19;20171;-52
2022/02/08 21:19:22;;;;;;;6.60;4.20;;;;;;;7.43;100.00;100494.47;15275007;19;20151;-49
2022/02/08 21:24:30;;;;;;;5.27;4.60;;;;;;;7.40;100.00;100515.84;15275636;19;20170;-50
2022/02/08 21:29:47;;;;;;;5.40;4.67;;;;;;;7.47;100.00;100512.00;15272252;19;20148;-48
2022/02/08 21:56:07;;;;;;;5.07;4.10;;;;;;;7.29;100.00;100549.16;15247392;19;20154;-48
2022/02/08 22:01:11;;;;;;;5.43;4.00;;;;;;;7.27;100.00;100554.53;15254576;19;20159;-51
2022/02/08 22:06:16;;;;;;;5.93;4.67;;;;;;;7.31;100.00;100558.78;15276733;19;21004;-52
2022/02/08 22:17:09;;;;;;;4.57;2.80;;;;;;;7.01;100.00;100587.59;15271595;19;21119;-49
2022/02/08 22:22:25;;;;;;;4.60;3.20;;;;;;;6.88;100.00;100590.88;15262465;19;20150;-49
2022/02/08 22:27:40;;;;;;;5.50;3.00;;;;;;;6.60;100.00;100585.91;15284140;19;20153;-50
2022/02/08 22:32:46;;;;;;;4.70;2.47;;;;;;;6.31;100.00;100605.72;15285043;19;20150;-50
2022/02/08 22:38:02;;;;;;;5.57;3.10;;;;;;;6.14;100.00;100604.66;15277400;19;20138;-50
2022/02/08 22:43:11;;;;;;;6.73;3.20;;;;;;;5.93;100.00;100604.66;15255097;19;20725;-53
2022/02/08 22:48:16;;;;;;;4.27;2.80;;;;;;;5.82;100.00;100622.72;15280578;19;20145;-51
2022/02/08 22:53:20;;;;;;;4.93;2.80;;;;;;;5.73;100.00;100616.88;15285181;19;20141;-50
2022/02/08 22:58:25;;;;;;;8.27;3.87;;;;;;;5.78;100.00;100627.31;15282261;19;20160;-49
2022/02/08 23:03:29;;;;;;;6.23;3.53;;;;;;;5.92;100.00;100629.41;15251557;19;20189;-52
2022/02/08 23:08:34;;;;;;;3.80;3.20;;;;;;;6.00;100.00;100649.38;15270434;19;20150;-48
2022/02/08 23:13:46;;;;;;;4.87;3.33;;;;;;;5.85;100.00;100644.66;15282657;19;20521;-50
2022/02/08 23:39:58;;;;;;;5.00;2.83;;;;;;;5.25;100.00;100691.06;15280802;19;20326;-51
2022/02/08 23:45:03;;;;;;;8.77;2.80;;;;;;;5.10;100.00;100681.03;15275467;19;20141;-49
2022/02/08 23:50:08;;;;;;;5.33;2.57;;;;;;;5.06;100.00;100682.09;15249789;19;20165;-48
2022/02/08 23:55:21;;;;;;;6.20;2.60;;;;;;;4.99;100.00;100694.66;15273648;19;20161;-50
